DLH2MW EGLL-EDDM
Flight info
| Callsign | DLH2MW |
|---|---|
| Flight time | 1h 32m |
| Altitude | 37000 |
| Route | DET L6 DVR UL9 KONAN UL607 SPI DCT MOVUM T109 HAREM T104 ROKIL ROKIL1B |
| Aircraft | A320/M-SDE3FGHIRWY/LB1 |
Departure
| Time | 2026-05-05 18:55 |
|---|---|
| Airport | London Heathrow Airport (EGLL) |
Arrival
| Time | 2026-05-05 20:27 |
|---|---|
| Airport | Munich Airport (EDDM) |
| Time | Latitude | Longitude | Altitude | Speed | Heading |
|---|---|---|---|---|---|
| 2026-05-05 18:04 | 51.47018 | -0.44391 | 87 ft | 0 kts | 90° |
| 2026-05-05 18:38 | 51.47018 | -0.44393 | 89 ft | 2 kts | 90° |
| 2026-05-05 18:38 | 51.47018 | -0.44434 | 87 ft | 4 kts | 92° |
| 2026-05-05 18:39 | 51.47020 | -0.44477 | 90 ft | 4 kts | 96° |
| 2026-05-05 18:39 | 51.47024 | -0.44520 | 87 ft | 4 kts | 109° |
| 2026-05-05 18:39 | 51.47036 | -0.44553 | 90 ft | 4 kts | 158° |
| 2026-05-05 18:39 | 51.47043 | -0.44556 | 90 ft | 0 kts | 179° |
| 2026-05-05 18:44 | 51.47014 | -0.44555 | 89 ft | 6 kts | 179° |
| 2026-05-05 18:44 | 51.46974 | -0.44554 | 86 ft | 10 kts | 180° |
| 2026-05-05 18:44 | 51.46873 | -0.44554 | 86 ft | 16 kts | 179° |
| 2026-05-05 18:44 | 51.46771 | -0.44553 | 86 ft | 14 kts | 180° |
| 2026-05-05 18:45 | 51.46691 | -0.44554 | 86 ft | 10 kts | 188° |
| 2026-05-05 18:45 | 51.46664 | -0.44641 | 86 ft | 13 kts | 270° |
| 2026-05-05 18:45 | 51.46663 | -0.44804 | 87 ft | 15 kts | 270° |
| 2026-05-05 18:45 | 51.46663 | -0.44967 | 86 ft | 16 kts | 270° |
| 2026-05-05 18:46 | 51.46665 | -0.45198 | 86 ft | 24 kts | 269° |
| 2026-05-05 18:46 | 51.46663 | -0.45435 | 86 ft | 20 kts | 269° |
| 2026-05-05 18:46 | 51.46662 | -0.45665 | 86 ft | 21 kts | 270° |
| 2026-05-05 18:46 | 51.46661 | -0.45913 | 86 ft | 23 kts | 270° |
| 2026-05-05 18:47 | 51.46660 | -0.46138 | 89 ft | 19 kts | 269° |
| 2026-05-05 18:47 | 51.46659 | -0.46356 | 88 ft | 20 kts | 270° |
| 2026-05-05 18:47 | 51.46659 | -0.46580 | 88 ft | 21 kts | 270° |
| 2026-05-05 18:47 | 51.46657 | -0.46821 | 90 ft | 22 kts | 270° |
| 2026-05-05 18:48 | 51.46656 | -0.47036 | 87 ft | 17 kts | 270° |
| 2026-05-05 18:48 | 51.46656 | -0.47224 | 86 ft | 17 kts | 270° |
| 2026-05-05 18:48 | 51.46655 | -0.47424 | 86 ft | 19 kts | 269° |
| 2026-05-05 18:48 | 51.46655 | -0.47639 | 86 ft | 20 kts | 270° |
| 2026-05-05 18:49 | 51.46654 | -0.47852 | 86 ft | 19 kts | 269° |
| 2026-05-05 18:49 | 51.46654 | -0.48074 | 86 ft | 21 kts | 270° |
| 2026-05-05 18:49 | 51.46653 | -0.48187 | 86 ft | 5 kts | 264° |
| 2026-05-05 18:49 | 51.46631 | -0.48214 | 87 ft | 3 kts | 192° |
| 2026-05-05 18:50 | 51.46613 | -0.48214 | 87 ft | 2 kts | 178° |
| 2026-05-05 18:50 | 51.46606 | -0.48213 | 87 ft | 0 kts | 178° |
| 2026-05-05 18:52 | 51.46574 | -0.48212 | 87 ft | 7 kts | 179° |
| 2026-05-05 18:53 | 51.46531 | -0.48210 | 88 ft | 5 kts | 179° |
| 2026-05-05 18:53 | 51.46505 | -0.48209 | 91 ft | 4 kts | 174° |
| 2026-05-05 18:53 | 51.46481 | -0.48178 | 91 ft | 4 kts | 119° |
| 2026-05-05 18:53 | 51.46479 | -0.48129 | 88 ft | 4 kts | 90° |
| 2026-05-05 18:54 | 51.46479 | -0.48003 | 87 ft | 33 kts | 88° |
| 2026-05-05 18:54 | 51.46483 | -0.47218 | 90 ft | 103 kts | 90° |
| 2026-05-05 18:54 | 51.46489 | -0.45774 | 88 ft | 155 kts | 89° |
| 2026-05-05 18:54 | 51.46521 | -0.43891 | 488 ft | 169 kts | 86° |
| 2026-05-05 18:55 | 51.46539 | -0.42000 | 1274 ft | 170 kts | 93° |
| 2026-05-05 18:55 | 51.46025 | -0.40179 | 1690 ft | 195 kts | 128° |
| 2026-05-05 18:55 | 51.45106 | -0.38450 | 2155 ft | 214 kts | 128° |
| 2026-05-05 18:55 | 51.44149 | -0.36475 | 2651 ft | 235 kts | 121° |
| 2026-05-05 18:56 | 51.43369 | -0.34076 | 3245 ft | 252 kts | 108° |
| 2026-05-05 18:56 | 51.42906 | -0.31311 | 4028 ft | 259 kts | 100° |
| 2026-05-05 18:56 | 51.42541 | -0.28467 | 4984 ft | 263 kts | 99° |
| 2026-05-05 18:56 | 51.42190 | -0.25573 | 5890 ft | 268 kts | 98° |
| 2026-05-05 18:57 | 51.41846 | -0.22604 | 6719 ft | 274 kts | 98° |
| 2026-05-05 18:57 | 51.41490 | -0.19575 | 7546 ft | 279 kts | 99° |
| 2026-05-05 18:57 | 51.41111 | -0.16497 | 8385 ft | 284 kts | 99° |
| 2026-05-05 18:57 | 51.40707 | -0.13364 | 9230 ft | 289 kts | 100° |
| 2026-05-05 18:58 | 51.40284 | -0.10190 | 10018 ft | 295 kts | 101° |
| 2026-05-05 18:58 | 51.39834 | -0.06871 | 10373 ft | 317 kts | 101° |
| 2026-05-05 18:58 | 51.39342 | -0.03293 | 10618 ft | 340 kts | 101° |
| 2026-05-05 18:58 | 51.38814 | 0.00487 | 11053 ft | 354 kts | 101° |
| 2026-05-05 18:59 | 51.38280 | 0.04358 | 11772 ft | 358 kts | 101° |
| 2026-05-05 18:59 | 51.37751 | 0.08270 | 12516 ft | 361 kts | 101° |
| 2026-05-05 18:59 | 51.37225 | 0.12218 | 13255 ft | 364 kts | 101° |
| 2026-05-05 18:59 | 51.36695 | 0.16195 | 13959 ft | 368 kts | 101° |
| 2026-05-05 19:00 | 51.36162 | 0.20205 | 14598 ft | 371 kts | 101° |
| 2026-05-05 19:00 | 51.35619 | 0.24262 | 15255 ft | 374 kts | 101° |
| 2026-05-05 19:00 | 51.35063 | 0.28345 | 15896 ft | 377 kts | 101° |
| 2026-05-05 19:00 | 51.34493 | 0.32452 | 16525 ft | 380 kts | 101° |
| 2026-05-05 19:01 | 51.33920 | 0.36600 | 17150 ft | 383 kts | 101° |
| 2026-05-05 19:01 | 51.33339 | 0.40777 | 17771 ft | 386 kts | 101° |
| 2026-05-05 19:01 | 51.32749 | 0.44922 | 18486 ft | 389 kts | 102° |
| 2026-05-05 19:01 | 51.32144 | 0.49154 | 19000 ft | 392 kts | 101° |
| 2026-05-05 19:02 | 51.31549 | 0.53419 | 19512 ft | 394 kts | 102° |
| 2026-05-05 19:02 | 51.30937 | 0.57753 | 20026 ft | 397 kts | 101° |
| 2026-05-05 19:02 | 51.30393 | 0.62041 | 20506 ft | 400 kts | 98° |
| 2026-05-05 19:02 | 51.29941 | 0.66440 | 20972 ft | 403 kts | 97° |
| 2026-05-05 19:03 | 51.29540 | 0.70935 | 21435 ft | 406 kts | 96° |
| 2026-05-05 19:03 | 51.29167 | 0.75368 | 21883 ft | 409 kts | 96° |
| 2026-05-05 19:03 | 51.28774 | 0.79949 | 22330 ft | 412 kts | 97° |
| 2026-05-05 19:03 | 51.28370 | 0.84433 | 22760 ft | 415 kts | 97° |
| 2026-05-05 19:04 | 51.27935 | 0.89056 | 23199 ft | 418 kts | 97° |
| 2026-05-05 19:04 | 51.27487 | 0.93663 | 23610 ft | 421 kts | 97° |
| 2026-05-05 19:04 | 51.27032 | 0.98246 | 23939 ft | 425 kts | 98° |
| 2026-05-05 19:04 | 51.26566 | 1.02911 | 24282 ft | 428 kts | 98° |
| 2026-05-05 19:05 | 51.26097 | 1.07615 | 24665 ft | 430 kts | 99° |
| 2026-05-05 19:05 | 51.25631 | 1.12335 | 25043 ft | 431 kts | 99° |
| 2026-05-05 19:05 | 51.25165 | 1.17068 | 25419 ft | 433 kts | 99° |
| 2026-05-05 19:05 | 51.24696 | 1.21835 | 25797 ft | 435 kts | 99° |
| 2026-05-05 19:06 | 51.24223 | 1.26597 | 26172 ft | 436 kts | 99° |
| 2026-05-05 19:06 | 51.23742 | 1.31391 | 26541 ft | 438 kts | 100° |
| 2026-05-05 19:06 | 51.23256 | 1.36204 | 26893 ft | 440 kts | 99° |
| 2026-05-05 19:06 | 51.22766 | 1.41034 | 27250 ft | 441 kts | 101° |
| 2026-05-05 19:07 | 51.22274 | 1.45857 | 27587 ft | 443 kts | 101° |
| 2026-05-05 19:07 | 51.21775 | 1.50718 | 27906 ft | 445 kts | 101° |
| 2026-05-05 19:07 | 51.21273 | 1.55607 | 28214 ft | 446 kts | 102° |
| 2026-05-05 19:07 | 51.20770 | 1.60494 | 28538 ft | 448 kts | 101° |
| 2026-05-05 19:08 | 51.20263 | 1.65408 | 28820 ft | 450 kts | 101° |
| 2026-05-05 19:08 | 51.19753 | 1.70331 | 29122 ft | 452 kts | 102° |
| 2026-05-05 19:08 | 51.19236 | 1.75292 | 29415 ft | 453 kts | 101° |
| 2026-05-05 19:08 | 51.18717 | 1.80249 | 29751 ft | 454 kts | 102° |
| 2026-05-05 19:09 | 51.18198 | 1.85198 | 30166 ft | 452 kts | 102° |
| 2026-05-05 19:09 | 51.17680 | 1.90128 | 30525 ft | 450 kts | 101° |
| 2026-05-05 19:09 | 51.17165 | 1.95017 | 30953 ft | 447 kts | 101° |
| 2026-05-05 19:09 | 51.16647 | 1.99885 | 31407 ft | 443 kts | 101° |
| 2026-05-05 19:10 | 51.16130 | 2.04713 | 31786 ft | 442 kts | 102° |
| 2026-05-05 19:10 | 51.15614 | 2.09522 | 32141 ft | 441 kts | 102° |
| 2026-05-05 19:10 | 51.15098 | 2.14319 | 32517 ft | 439 kts | 102° |
| 2026-05-05 19:10 | 51.14578 | 2.19114 | 32884 ft | 438 kts | 102° |
| 2026-05-05 19:11 | 51.14054 | 2.23882 | 33224 ft | 437 kts | 102° |
| 2026-05-05 19:11 | 51.13530 | 2.28641 | 33590 ft | 436 kts | 102° |
| 2026-05-05 19:11 | 51.13008 | 2.33388 | 33942 ft | 434 kts | 103° |
| 2026-05-05 19:11 | 51.12487 | 2.38124 | 34220 ft | 434 kts | 103° |
| 2026-05-05 19:12 | 51.11963 | 2.42850 | 34482 ft | 434 kts | 103° |
| 2026-05-05 19:12 | 51.11432 | 2.47597 | 34714 ft | 435 kts | 103° |
| 2026-05-05 19:12 | 51.10903 | 2.52331 | 34929 ft | 436 kts | 102° |
| 2026-05-05 19:12 | 51.10369 | 2.57086 | 35139 ft | 437 kts | 102° |
| 2026-05-05 19:13 | 51.09834 | 2.61867 | 35341 ft | 438 kts | 102° |
| 2026-05-05 19:13 | 51.09212 | 2.66607 | 35532 ft | 438 kts | 108° |
| 2026-05-05 19:13 | 51.08376 | 2.71258 | 35732 ft | 438 kts | 109° |
| 2026-05-05 19:13 | 51.07532 | 2.75925 | 35918 ft | 439 kts | 108° |
| 2026-05-05 19:14 | 51.06683 | 2.80607 | 36099 ft | 440 kts | 109° |
| 2026-05-05 19:14 | 51.05831 | 2.85286 | 36280 ft | 441 kts | 109° |
| 2026-05-05 19:14 | 51.04988 | 2.89903 | 36478 ft | 442 kts | 108° |
| 2026-05-05 19:14 | 51.04132 | 2.94591 | 36665 ft | 442 kts | 108° |
| 2026-05-05 19:15 | 51.03275 | 2.99288 | 36848 ft | 443 kts | 108° |
| 2026-05-05 19:15 | 51.02410 | 3.03997 | 36910 ft | 446 kts | 108° |
| 2026-05-05 19:15 | 51.00661 | 3.13462 | 36904 ft | 446 kts | 109° |
| 2026-05-05 19:16 | 50.98916 | 3.22913 | 36892 ft | 447 kts | 109° |
| 2026-05-05 19:16 | 50.97457 | 3.30773 | 36882 ft | 447 kts | 109° |
| 2026-05-05 19:17 | 50.95692 | 3.40212 | 36877 ft | 446 kts | 109° |
| 2026-05-05 19:17 | 50.93919 | 3.49641 | 36878 ft | 446 kts | 109° |
| 2026-05-05 19:18 | 50.92141 | 3.59065 | 36876 ft | 446 kts | 109° |
| 2026-05-05 19:18 | 50.90354 | 3.68472 | 36884 ft | 446 kts | 109° |
| 2026-05-05 19:19 | 50.88543 | 3.77875 | 36877 ft | 446 kts | 109° |
| 2026-05-05 19:19 | 50.86720 | 3.87257 | 36878 ft | 446 kts | 109° |
| 2026-05-05 19:20 | 50.84889 | 3.96636 | 36881 ft | 446 kts | 110° |
| 2026-05-05 19:20 | 50.83055 | 4.06006 | 36885 ft | 446 kts | 110° |
| 2026-05-05 19:21 | 50.81218 | 4.15371 | 36888 ft | 446 kts | 110° |
| 2026-05-05 19:21 | 50.79380 | 4.24717 | 36892 ft | 446 kts | 109° |
| 2026-05-05 19:22 | 50.77523 | 4.34071 | 36899 ft | 446 kts | 110° |
| 2026-05-05 19:22 | 50.75659 | 4.43404 | 36899 ft | 446 kts | 110° |
| 2026-05-05 19:23 | 50.73794 | 4.52726 | 36905 ft | 445 kts | 110° |
| 2026-05-05 19:23 | 50.71917 | 4.62040 | 36896 ft | 445 kts | 110° |
| 2026-05-05 19:24 | 50.70094 | 4.71362 | 36877 ft | 445 kts | 109° |
| 2026-05-05 19:24 | 50.68301 | 4.80697 | 36873 ft | 445 kts | 109° |
| 2026-05-05 19:25 | 50.66490 | 4.90026 | 36877 ft | 445 kts | 109° |
| 2026-05-05 19:25 | 50.64634 | 4.99314 | 36874 ft | 444 kts | 110° |
| 2026-05-05 19:26 | 50.62718 | 5.08574 | 36873 ft | 444 kts | 110° |
| 2026-05-05 19:26 | 50.60791 | 5.17815 | 36865 ft | 444 kts | 110° |
| 2026-05-05 19:27 | 50.58882 | 5.26995 | 36871 ft | 444 kts | 110° |
| 2026-05-05 19:27 | 50.56960 | 5.36209 | 36880 ft | 443 kts | 110° |
| 2026-05-05 19:28 | 50.55036 | 5.45420 | 36870 ft | 443 kts | 110° |
| 2026-05-05 19:28 | 50.53106 | 5.54618 | 36862 ft | 443 kts | 111° |
| 2026-05-05 19:29 | 50.51173 | 5.63794 | 36867 ft | 443 kts | 110° |
| 2026-05-05 19:29 | 50.49425 | 5.73069 | 36869 ft | 443 kts | 108° |
| 2026-05-05 19:30 | 50.47812 | 5.82397 | 36860 ft | 442 kts | 108° |
| 2026-05-05 19:30 | 50.46167 | 5.91694 | 36859 ft | 442 kts | 108° |
| 2026-05-05 19:31 | 50.44474 | 6.00953 | 36846 ft | 442 kts | 108° |
| 2026-05-05 19:31 | 50.42756 | 6.10206 | 36830 ft | 441 kts | 109° |
| 2026-05-05 19:32 | 50.41039 | 6.19447 | 36822 ft | 441 kts | 109° |
| 2026-05-05 19:32 | 50.39323 | 6.28672 | 36820 ft | 441 kts | 109° |
| 2026-05-05 19:33 | 50.37594 | 6.37911 | 36808 ft | 441 kts | 109° |
| 2026-05-05 19:33 | 50.35870 | 6.47077 | 36795 ft | 441 kts | 109° |
| 2026-05-05 19:34 | 50.34119 | 6.56362 | 36795 ft | 442 kts | 109° |
| 2026-05-05 19:35 | 50.31499 | 6.70176 | 36798 ft | 442 kts | 109° |
| 2026-05-05 19:35 | 50.29736 | 6.79402 | 36803 ft | 442 kts | 109° |
| 2026-05-05 19:36 | 50.27967 | 6.88607 | 36803 ft | 442 kts | 109° |
| 2026-05-05 19:36 | 50.26185 | 6.97814 | 36792 ft | 443 kts | 109° |
| 2026-05-05 19:37 | 50.24398 | 7.07019 | 36799 ft | 443 kts | 109° |
| 2026-05-05 19:37 | 50.22601 | 7.16230 | 36804 ft | 443 kts | 109° |
| 2026-05-05 19:38 | 50.20798 | 7.25428 | 36804 ft | 443 kts | 109° |
| 2026-05-05 19:38 | 50.18987 | 7.34625 | 36806 ft | 443 kts | 110° |
| 2026-05-05 19:39 | 50.17174 | 7.43811 | 36790 ft | 444 kts | 110° |
| 2026-05-05 19:39 | 50.15344 | 7.53016 | 36797 ft | 444 kts | 110° |
| 2026-05-05 19:40 | 50.13506 | 7.62217 | 36796 ft | 444 kts | 110° |
| 2026-05-05 19:40 | 50.11668 | 7.71402 | 36801 ft | 445 kts | 110° |
| 2026-05-05 19:41 | 50.09812 | 7.80602 | 36790 ft | 445 kts | 110° |
| 2026-05-05 19:41 | 50.07950 | 7.89785 | 36807 ft | 445 kts | 110° |
| 2026-05-05 19:42 | 50.06083 | 7.98970 | 36825 ft | 445 kts | 110° |
| 2026-05-05 19:42 | 50.04210 | 8.08136 | 36836 ft | 445 kts | 110° |
| 2026-05-05 19:43 | 50.02323 | 8.17306 | 36845 ft | 445 kts | 110° |
| 2026-05-05 19:43 | 50.00433 | 8.26484 | 36832 ft | 445 kts | 111° |
| 2026-05-05 19:44 | 49.98537 | 8.35656 | 36786 ft | 446 kts | 111° |
| 2026-05-05 19:44 | 49.97588 | 8.40230 | 36527 ft | 445 kts | 111° |
| 2026-05-05 19:44 | 49.96641 | 8.44786 | 36238 ft | 443 kts | 111° |
| 2026-05-05 19:44 | 49.95690 | 8.49337 | 35982 ft | 441 kts | 111° |
| 2026-05-05 19:45 | 49.94558 | 8.53728 | 35727 ft | 437 kts | 119° |
| 2026-05-05 19:45 | 49.93107 | 8.57785 | 35482 ft | 434 kts | 122° |
| 2026-05-05 19:45 | 49.91587 | 8.61894 | 35239 ft | 433 kts | 122° |
| 2026-05-05 19:45 | 49.90111 | 8.65882 | 34992 ft | 431 kts | 122° |
| 2026-05-05 19:46 | 49.88623 | 8.69901 | 34804 ft | 430 kts | 122° |
| 2026-05-05 19:46 | 49.85655 | 8.77924 | 34829 ft | 430 kts | 122° |
| 2026-05-05 19:47 | 49.82674 | 8.85976 | 34822 ft | 431 kts | 122° |
| 2026-05-05 19:47 | 49.79678 | 8.94031 | 34823 ft | 432 kts | 122° |
| 2026-05-05 19:48 | 49.76671 | 9.02079 | 34827 ft | 432 kts | 122° |
| 2026-05-05 19:48 | 49.73658 | 9.10116 | 34821 ft | 433 kts | 122° |
| 2026-05-05 19:49 | 49.70637 | 9.18159 | 34820 ft | 433 kts | 122° |
| 2026-05-05 19:49 | 49.67607 | 9.26201 | 34825 ft | 433 kts | 122° |
| 2026-05-05 19:50 | 49.64569 | 9.34227 | 34827 ft | 433 kts | 122° |
| 2026-05-05 19:50 | 49.61401 | 9.42113 | 34697 ft | 433 kts | 129° |
| 2026-05-05 19:50 | 49.59471 | 9.45648 | 34331 ft | 430 kts | 133° |
| 2026-05-05 19:51 | 49.57500 | 9.49104 | 33968 ft | 429 kts | 133° |
| 2026-05-05 19:51 | 49.55521 | 9.52564 | 33565 ft | 430 kts | 133° |
| 2026-05-05 19:51 | 49.53543 | 9.56013 | 33164 ft | 431 kts | 133° |
| 2026-05-05 19:51 | 49.51555 | 9.59479 | 32765 ft | 432 kts | 133° |
| 2026-05-05 19:52 | 49.49562 | 9.62954 | 32369 ft | 433 kts | 133° |
| 2026-05-05 19:52 | 49.47571 | 9.66432 | 31976 ft | 435 kts | 133° |
| 2026-05-05 19:52 | 49.45573 | 9.69925 | 31589 ft | 436 kts | 133° |
| 2026-05-05 19:52 | 49.43561 | 9.73434 | 31208 ft | 437 kts | 133° |
| 2026-05-05 19:53 | 49.41547 | 9.76935 | 30836 ft | 438 kts | 133° |
| 2026-05-05 19:53 | 49.39521 | 9.80450 | 30455 ft | 440 kts | 133° |
| 2026-05-05 19:53 | 49.37494 | 9.83962 | 30088 ft | 441 kts | 133° |
| 2026-05-05 19:53 | 49.35478 | 9.87447 | 29674 ft | 443 kts | 133° |
| 2026-05-05 19:54 | 49.33428 | 9.90981 | 29244 ft | 444 kts | 134° |
| 2026-05-05 19:54 | 49.31341 | 9.94576 | 28822 ft | 446 kts | 134° |
| 2026-05-05 19:54 | 49.29306 | 9.98085 | 28408 ft | 447 kts | 134° |
| 2026-05-05 19:54 | 49.27250 | 10.01628 | 27989 ft | 445 kts | 134° |
| 2026-05-05 19:55 | 49.25194 | 10.05155 | 27598 ft | 443 kts | 134° |
| 2026-05-05 19:55 | 49.23150 | 10.08649 | 27296 ft | 437 kts | 134° |
| 2026-05-05 19:55 | 49.21160 | 10.12053 | 27035 ft | 423 kts | 134° |
| 2026-05-05 19:55 | 49.19226 | 10.15369 | 26777 ft | 410 kts | 134° |
| 2026-05-05 19:56 | 49.17355 | 10.18573 | 26512 ft | 398 kts | 134° |
| 2026-05-05 19:56 | 49.15536 | 10.21678 | 26250 ft | 387 kts | 134° |
| 2026-05-05 19:56 | 49.13765 | 10.24696 | 26008 ft | 377 kts | 135° |
| 2026-05-05 19:56 | 49.12014 | 10.27600 | 25745 ft | 367 kts | 136° |
| 2026-05-05 19:57 | 49.10283 | 10.30391 | 25508 ft | 358 kts | 136° |
| 2026-05-05 19:57 | 49.09121 | 10.32243 | 25344 ft | 355 kts | 136° |
| 2026-05-05 19:57 | 49.06861 | 10.35826 | 25020 ft | 353 kts | 136° |
| 2026-05-05 19:57 | 49.05168 | 10.38513 | 24767 ft | 352 kts | 136° |
| 2026-05-05 19:58 | 49.03477 | 10.41201 | 24528 ft | 350 kts | 136° |
| 2026-05-05 19:58 | 49.01796 | 10.43884 | 24312 ft | 349 kts | 136° |
| 2026-05-05 19:58 | 49.00127 | 10.46559 | 24063 ft | 348 kts | 136° |
| 2026-05-05 19:58 | 48.98462 | 10.49223 | 23827 ft | 347 kts | 136° |
| 2026-05-05 19:59 | 48.96800 | 10.51877 | 23596 ft | 346 kts | 136° |
| 2026-05-05 19:59 | 48.95146 | 10.54515 | 23354 ft | 344 kts | 136° |
| 2026-05-05 19:59 | 48.93491 | 10.57149 | 23074 ft | 343 kts | 136° |
| 2026-05-05 19:59 | 48.91843 | 10.59775 | 22785 ft | 344 kts | 136° |
| 2026-05-05 20:00 | 48.90189 | 10.62404 | 22516 ft | 344 kts | 136° |
| 2026-05-05 20:00 | 48.88539 | 10.65015 | 22243 ft | 342 kts | 136° |
| 2026-05-05 20:00 | 48.86892 | 10.67618 | 21976 ft | 341 kts | 136° |
| 2026-05-05 20:00 | 48.85252 | 10.70215 | 21712 ft | 340 kts | 136° |
| 2026-05-05 20:01 | 48.83619 | 10.72804 | 21449 ft | 339 kts | 136° |
| 2026-05-05 20:01 | 48.81991 | 10.75381 | 21179 ft | 338 kts | 136° |
| 2026-05-05 20:01 | 48.80366 | 10.77947 | 20930 ft | 337 kts | 136° |
| 2026-05-05 20:01 | 48.78741 | 10.80503 | 20675 ft | 336 kts | 136° |
| 2026-05-05 20:02 | 48.77667 | 10.82188 | 20496 ft | 336 kts | 136° |
| 2026-05-05 20:02 | 48.76046 | 10.84728 | 20241 ft | 334 kts | 136° |
| 2026-05-05 20:02 | 48.74432 | 10.87253 | 19989 ft | 333 kts | 136° |
| 2026-05-05 20:02 | 48.72818 | 10.89775 | 19734 ft | 332 kts | 136° |
| 2026-05-05 20:03 | 48.71212 | 10.92288 | 19485 ft | 331 kts | 136° |
| 2026-05-05 20:03 | 48.69616 | 10.94789 | 19239 ft | 330 kts | 137° |
| 2026-05-05 20:03 | 48.68014 | 10.97286 | 18996 ft | 330 kts | 137° |
| 2026-05-05 20:03 | 48.66417 | 10.99765 | 18756 ft | 328 kts | 138° |
| 2026-05-05 20:04 | 48.64766 | 11.02139 | 18517 ft | 327 kts | 141° |
| 2026-05-05 20:04 | 48.63069 | 11.04425 | 18285 ft | 326 kts | 141° |
| 2026-05-05 20:04 | 48.61564 | 11.06979 | 18033 ft | 329 kts | 126° |
| 2026-05-05 20:04 | 48.60341 | 11.09898 | 17760 ft | 329 kts | 125° |
| 2026-05-05 20:05 | 48.59131 | 11.12830 | 17497 ft | 328 kts | 125° |
| 2026-05-05 20:05 | 48.57936 | 11.15746 | 17186 ft | 327 kts | 124° |
| 2026-05-05 20:05 | 48.56742 | 11.18662 | 16826 ft | 326 kts | 125° |
| 2026-05-05 20:05 | 48.55549 | 11.21572 | 16435 ft | 325 kts | 125° |
| 2026-05-05 20:06 | 48.54362 | 11.24458 | 16052 ft | 324 kts | 125° |
| 2026-05-05 20:06 | 48.53172 | 11.27340 | 15677 ft | 323 kts | 125° |
| 2026-05-05 20:06 | 48.51980 | 11.30217 | 15292 ft | 323 kts | 125° |
| 2026-05-05 20:06 | 48.50791 | 11.33086 | 14916 ft | 322 kts | 125° |
| 2026-05-05 20:07 | 48.49606 | 11.35946 | 14546 ft | 322 kts | 125° |
| 2026-05-05 20:07 | 48.48418 | 11.38804 | 14195 ft | 321 kts | 125° |
| 2026-05-05 20:07 | 48.47229 | 11.41658 | 13843 ft | 321 kts | 125° |
| 2026-05-05 20:07 | 48.46050 | 11.44497 | 13467 ft | 320 kts | 125° |
| 2026-05-05 20:08 | 48.44933 | 11.47397 | 13068 ft | 321 kts | 119° |
| 2026-05-05 20:08 | 48.44102 | 11.50476 | 12681 ft | 323 kts | 110° |
| 2026-05-05 20:08 | 48.43588 | 11.53766 | 12287 ft | 324 kts | 101° |
| 2026-05-05 20:08 | 48.43411 | 11.57153 | 11907 ft | 325 kts | 92° |
| 2026-05-05 20:09 | 48.43569 | 11.60553 | 11527 ft | 325 kts | 84° |
| 2026-05-05 20:09 | 48.43842 | 11.63921 | 11160 ft | 324 kts | 85° |
| 2026-05-05 20:09 | 48.44105 | 11.67288 | 10781 ft | 323 kts | 85° |
| 2026-05-05 20:09 | 48.44360 | 11.70638 | 10428 ft | 321 kts | 85° |
| 2026-05-05 20:10 | 48.44611 | 11.73946 | 10175 ft | 315 kts | 85° |
| 2026-05-05 20:10 | 48.44857 | 11.77196 | 9934 ft | 309 kts | 85° |
| 2026-05-05 20:10 | 48.45099 | 11.80386 | 9689 ft | 303 kts | 85° |
| 2026-05-05 20:10 | 48.45337 | 11.83510 | 9432 ft | 298 kts | 84° |
| 2026-05-05 20:11 | 48.45574 | 11.86584 | 9159 ft | 293 kts | 84° |
| 2026-05-05 20:11 | 48.45804 | 11.89596 | 8897 ft | 287 kts | 84° |
| 2026-05-05 20:11 | 48.46028 | 11.92567 | 8644 ft | 282 kts | 84° |
| 2026-05-05 20:11 | 48.46247 | 11.95481 | 8389 ft | 277 kts | 84° |
| 2026-05-05 20:12 | 48.46460 | 11.98345 | 8131 ft | 272 kts | 84° |
| 2026-05-05 20:12 | 48.46669 | 12.01149 | 7877 ft | 267 kts | 84° |
| 2026-05-05 20:12 | 48.46875 | 12.03917 | 7624 ft | 263 kts | 84° |
| 2026-05-05 20:12 | 48.47073 | 12.06590 | 7375 ft | 258 kts | 84° |
| 2026-05-05 20:13 | 48.47269 | 12.09259 | 7128 ft | 254 kts | 84° |
| 2026-05-05 20:13 | 48.47462 | 12.11886 | 6886 ft | 250 kts | 84° |
| 2026-05-05 20:13 | 48.47655 | 12.14475 | 6637 ft | 247 kts | 84° |
| 2026-05-05 20:13 | 48.47844 | 12.17032 | 6390 ft | 244 kts | 84° |
| 2026-05-05 20:14 | 48.48027 | 12.19550 | 6130 ft | 240 kts | 83° |
| 2026-05-05 20:14 | 48.48208 | 12.22041 | 5887 ft | 238 kts | 83° |
| 2026-05-05 20:14 | 48.48389 | 12.24519 | 5638 ft | 238 kts | 83° |
| 2026-05-05 20:14 | 48.48571 | 12.26991 | 5379 ft | 237 kts | 83° |
| 2026-05-05 20:15 | 48.48751 | 12.29459 | 5130 ft | 236 kts | 82° |
| 2026-05-05 20:15 | 48.48927 | 12.31902 | 5006 ft | 235 kts | 82° |
| 2026-05-05 20:15 | 48.49101 | 12.34345 | 5004 ft | 235 kts | 82° |
| 2026-05-05 20:15 | 48.49274 | 12.36789 | 5001 ft | 235 kts | 83° |
| 2026-05-05 20:16 | 48.49361 | 12.39239 | 4997 ft | 234 kts | 96° |
| 2026-05-05 20:16 | 48.48951 | 12.41590 | 4999 ft | 233 kts | 117° |
| 2026-05-05 20:16 | 48.48027 | 12.43580 | 5002 ft | 231 kts | 139° |
| 2026-05-05 20:16 | 48.46725 | 12.44948 | 5001 ft | 227 kts | 160° |
| 2026-05-05 20:17 | 48.45224 | 12.45565 | 5004 ft | 221 kts | 180° |
| 2026-05-05 20:17 | 48.43717 | 12.45409 | 5002 ft | 215 kts | 198° |
| 2026-05-05 20:17 | 48.42357 | 12.44566 | 5001 ft | 210 kts | 217° |
| 2026-05-05 20:17 | 48.41264 | 12.43155 | 5001 ft | 203 kts | 234° |
| 2026-05-05 20:18 | 48.40555 | 12.41454 | 5017 ft | 184 kts | 249° |
| 2026-05-05 20:18 | 48.40212 | 12.39632 | 5006 ft | 179 kts | 264° |
| 2026-05-05 20:18 | 48.40116 | 12.37770 | 5005 ft | 179 kts | 267° |
| 2026-05-05 20:18 | 48.40031 | 12.35907 | 5006 ft | 178 kts | 266° |
| 2026-05-05 20:19 | 48.39944 | 12.34042 | 5006 ft | 178 kts | 267° |
| 2026-05-05 20:19 | 48.39856 | 12.32180 | 5006 ft | 179 kts | 267° |
| 2026-05-05 20:19 | 48.39811 | 12.30315 | 5007 ft | 178 kts | 277° |
| 2026-05-05 20:19 | 48.39991 | 12.28476 | 5013 ft | 178 kts | 272° |
| 2026-05-05 20:20 | 48.39948 | 12.26602 | 5013 ft | 179 kts | 267° |
| 2026-05-05 20:20 | 48.39838 | 12.24733 | 5013 ft | 179 kts | 265° |
| 2026-05-05 20:20 | 48.39711 | 12.22868 | 5012 ft | 179 kts | 265° |
| 2026-05-05 20:20 | 48.39578 | 12.21007 | 5013 ft | 179 kts | 265° |
| 2026-05-05 20:21 | 48.39444 | 12.19146 | 5013 ft | 179 kts | 265° |
| 2026-05-05 20:21 | 48.39309 | 12.17288 | 5020 ft | 179 kts | 265° |
| 2026-05-05 20:21 | 48.39172 | 12.15420 | 5021 ft | 179 kts | 265° |
| 2026-05-05 20:21 | 48.39036 | 12.13562 | 5022 ft | 179 kts | 265° |
| 2026-05-05 20:22 | 48.38902 | 12.11729 | 5024 ft | 178 kts | 264° |
| 2026-05-05 20:22 | 48.38765 | 12.09877 | 4983 ft | 179 kts | 264° |
| 2026-05-05 20:22 | 48.38629 | 12.08021 | 4816 ft | 178 kts | 264° |
| 2026-05-05 20:22 | 48.38493 | 12.06181 | 4606 ft | 177 kts | 264° |
| 2026-05-05 20:23 | 48.38357 | 12.04348 | 4378 ft | 176 kts | 264° |
| 2026-05-05 20:23 | 48.38222 | 12.02527 | 4136 ft | 175 kts | 264° |
| 2026-05-05 20:23 | 48.38086 | 12.00706 | 3916 ft | 175 kts | 263° |
| 2026-05-05 20:23 | 48.37951 | 11.98895 | 3711 ft | 174 kts | 264° |
| 2026-05-05 20:24 | 48.37811 | 11.97100 | 3504 ft | 170 kts | 264° |
| 2026-05-05 20:24 | 48.37670 | 11.95365 | 3324 ft | 162 kts | 264° |
| 2026-05-05 20:24 | 48.37560 | 11.93807 | 3243 ft | 137 kts | 266° |
| 2026-05-05 20:24 | 48.37480 | 11.92430 | 3038 ft | 130 kts | 265° |
| 2026-05-05 20:25 | 48.37381 | 11.91068 | 2797 ft | 132 kts | 264° |
| 2026-05-05 20:25 | 48.37272 | 11.89699 | 2587 ft | 132 kts | 264° |
| 2026-05-05 20:25 | 48.37162 | 11.88323 | 2401 ft | 134 kts | 263° |
| 2026-05-05 20:25 | 48.37051 | 11.86916 | 2192 ft | 138 kts | 264° |
| 2026-05-05 20:26 | 48.36945 | 11.85456 | 1968 ft | 142 kts | 264° |
| 2026-05-05 20:26 | 48.36821 | 11.83964 | 1751 ft | 144 kts | 264° |
| 2026-05-05 20:26 | 48.36717 | 11.82502 | 1580 ft | 138 kts | 265° |
| 2026-05-05 20:26 | 48.36608 | 11.81116 | 1480 ft | 123 kts | 263° |
| 2026-05-05 20:27 | 48.36530 | 11.80065 | 1483 ft | 77 kts | 264° |
| 2026-05-05 20:27 | 48.36488 | 11.79515 | 1485 ft | 36 kts | 263° |
| 2026-05-05 20:27 | 48.36460 | 11.79163 | 1485 ft | 32 kts | 260° |
| 2026-05-05 20:27 | 48.36379 | 11.78865 | 1485 ft | 29 kts | 234° |
| 2026-05-05 20:28 | 48.36313 | 11.78733 | 1481 ft | 12 kts | 233° |
| 2026-05-05 20:28 | 48.36259 | 11.78623 | 1480 ft | 14 kts | 233° |
| 2026-05-05 20:28 | 48.36192 | 11.78499 | 1482 ft | 16 kts | 220° |
| 2026-05-05 20:28 | 48.36081 | 11.78485 | 1483 ft | 15 kts | 173° |
| 2026-05-05 20:29 | 48.36034 | 11.78520 | 1478 ft | 6 kts | 107° |
| 2026-05-05 20:29 | 48.36039 | 11.78612 | 1482 ft | 13 kts | 83° |
| 2026-05-05 20:29 | 48.36049 | 11.78749 | 1475 ft | 14 kts | 84° |
| 2026-05-05 20:29 | 48.36060 | 11.78895 | 1480 ft | 16 kts | 83° |
| 2026-05-05 20:30 | 48.36073 | 11.79062 | 1485 ft | 15 kts | 83° |
| 2026-05-05 20:30 | 48.36085 | 11.79214 | 1483 ft | 14 kts | 83° |
| 2026-05-05 20:30 | 48.36064 | 11.79320 | 1471 ft | 10 kts | 154° |
| 2026-05-05 20:30 | 48.35998 | 11.79333 | 1482 ft | 9 kts | 174° |
| 2026-05-05 20:31 | 48.35937 | 11.79348 | 1485 ft | 11 kts | 158° |
| 2026-05-05 20:31 | 48.35852 | 11.79385 | 1483 ft | 13 kts | 173° |
| 2026-05-05 20:31 | 48.35757 | 11.79401 | 1476 ft | 14 kts | 173° |
| 2026-05-05 20:31 | 48.35652 | 11.79420 | 1474 ft | 16 kts | 173° |
| 2026-05-05 20:32 | 48.35533 | 11.79441 | 1483 ft | 18 kts | 173° |
| 2026-05-05 20:32 | 48.35419 | 11.79460 | 1483 ft | 15 kts | 173° |
| 2026-05-05 20:32 | 48.35314 | 11.79479 | 1483 ft | 16 kts | 173° |
| 2026-05-05 20:32 | 48.35199 | 11.79498 | 1485 ft | 15 kts | 173° |
| 2026-05-05 20:33 | 48.35136 | 11.79509 | 1480 ft | 6 kts | 173° |
| 2026-05-05 20:33 | 48.35095 | 11.79516 | 1485 ft | 5 kts | 173° |
| 2026-05-05 20:33 | 48.35064 | 11.79462 | 1482 ft | 9 kts | 262° |
| 2026-05-05 20:33 | 48.35059 | 11.79385 | 1476 ft | 3 kts | 264° |
| 2026-05-05 20:34 | 48.35058 | 11.79378 | 1485 ft | 0 kts | 264° |